createdAt,value
2017-05-27T00:00:01.604Z,12.8
2017-05-27T00:05:02.118Z,12.8
2017-05-27T00:10:01.230Z,12.8
2017-05-27T00:15:01.363Z,12.8
2017-05-27T00:20:01.639Z,12.8
2017-05-27T00:25:01.409Z,12.6
2017-05-27T00:30:01.225Z,12.5
2017-05-27T00:35:01.434Z,12.5
2017-05-27T00:40:01.298Z,12.4
2017-05-27T00:45:02.193Z,12.4
2017-05-27T00:50:01.481Z,12.4
2017-05-27T00:55:02.200Z,12.4
2017-05-27T01:00:02.057Z,12.2
2017-05-27T01:05:01.727Z,12.2
2017-05-27T01:10:01.504Z,12.1
2017-05-27T01:15:01.731Z,12
2017-05-27T01:20:02.037Z,12
2017-05-27T01:25:01.817Z,12
2017-05-27T01:30:01.635Z,12
2017-05-27T01:35:01.232Z,12
2017-05-27T01:40:01.972Z,11.9
2017-05-27T01:45:01.802Z,11.8
2017-05-27T01:50:02.029Z,11.8
2017-05-27T01:55:01.732Z,11.8
2017-05-27T02:00:01.541Z,11.7
2017-05-27T02:05:02.187Z,11.7
2017-05-27T02:10:01.929Z,11.7
2017-05-27T02:15:02.170Z,11.7
2017-05-27T02:20:01.829Z,11.6
2017-05-27T02:25:01.650Z,11.6
2017-05-27T02:30:01.628Z,11.5
2017-05-27T02:35:01.960Z,11.5
2017-05-27T02:40:01.884Z,11.5
2017-05-27T02:45:02.128Z,11.4
2017-05-27T02:50:01.990Z,11.4
2017-05-27T02:55:01.743Z,11.3
2017-05-27T03:00:01.800Z,11.3
2017-05-27T03:05:01.669Z,11.3
2017-05-27T03:10:01.595Z,11.2
2017-05-27T03:15:01.786Z,11.2
2017-05-27T03:20:02.131Z,11.2
2017-05-27T03:25:01.197Z,11.1
2017-05-27T03:30:01.365Z,11.2
2017-05-27T03:35:01.644Z,11.1
2017-05-27T03:40:01.587Z,11.1
2017-05-27T03:45:01.852Z,11.1
2017-05-27T03:50:01.495Z,11.1
2017-05-27T03:55:01.825Z,11.1
2017-05-27T04:00:02.145Z,11.1
2017-05-27T04:05:02.034Z,11.2
2017-05-27T04:10:01.872Z,11.2
2017-05-27T04:15:01.215Z,11.3
2017-05-27T04:20:01.515Z,11.3
2017-05-27T04:25:01.881Z,11.5
2017-05-27T04:30:01.766Z,11.6
2017-05-27T04:35:01.686Z,11.7
2017-05-27T04:40:01.733Z,11.7
2017-05-27T04:45:02.050Z,11.7
2017-05-27T04:50:01.679Z,12
2017-05-27T04:55:02.007Z,12.1
2017-05-27T05:00:01.289Z,12.1
2017-05-27T05:05:02.188Z,12.6
2017-05-27T05:10:02.021Z,12.7
2017-05-27T05:15:01.267Z,12.7
2017-05-27T05:20:01.856Z,13.2
2017-05-27T05:25:01.940Z,13.2
2017-05-27T05:30:01.305Z,13.2
2017-05-27T05:35:01.188Z,14
2017-05-27T05:40:01.774Z,14
2017-05-27T05:45:01.454Z,14.5
2017-05-27T05:50:01.410Z,14.8
2017-05-27T05:55:02.123Z,15
2017-05-27T06:00:01.434Z,15
2017-05-27T06:05:01.881Z,15
2017-05-27T06:10:01.564Z,15.6
2017-05-27T06:15:01.667Z,15.6
2017-05-27T06:20:01.630Z,16.1
2017-05-27T06:25:01.695Z,16.3
2017-05-27T06:30:01.279Z,16.3
2017-05-27T06:35:01.219Z,16.9
2017-05-27T06:40:02.322Z,17.1
2017-05-27T06:45:01.658Z,17.4
2017-05-27T06:50:01.765Z,17.5
2017-05-27T06:55:01.520Z,17.9
2017-05-27T07:00:01.933Z,18.1
2017-05-27T07:05:02.035Z,18.2
2017-05-27T07:10:01.647Z,18.3
2017-05-27T07:15:02.276Z,18.6
2017-05-27T07:20:01.707Z,18.6
2017-05-27T07:25:01.818Z,19
2017-05-27T07:30:01.274Z,19.2
2017-05-27T07:35:01.286Z,19.2
2017-05-27T07:40:02.102Z,19.8
2017-05-27T07:45:01.173Z,19.8
2017-05-27T07:50:02.068Z,19.8
2017-05-27T07:55:01.852Z,20.2
2017-05-27T08:00:01.217Z,20.6
2017-05-27T08:05:02.130Z,20.9
2017-05-27T08:10:02.161Z,21
2017-05-27T08:15:01.393Z,21
2017-05-27T08:20:01.926Z,21
2017-05-27T08:25:02.032Z,21.6
2017-05-27T08:30:01.482Z,21.8
2017-05-27T08:35:01.273Z,21.9
2017-05-27T08:40:02.115Z,21.9
2017-05-27T08:45:01.887Z,22.3
2017-05-27T08:50:01.977Z,22.3
2017-05-27T08:55:01.887Z,22.8
2017-05-27T09:00:01.251Z,23
2017-05-27T09:05:01.804Z,23
2017-05-27T09:10:01.738Z,23.3
2017-05-27T09:15:01.457Z,23.4
2017-05-27T09:20:01.769Z,23.4
2017-05-27T09:25:01.942Z,23.6
2017-05-27T09:30:01.289Z,23.8
2017-05-27T09:35:02.047Z,23.8
2017-05-27T09:40:01.983Z,24
2017-05-27T09:45:01.710Z,24
2017-05-27T09:50:02.070Z,24.2
2017-05-27T09:55:02.123Z,24.2
2017-05-27T10:00:01.634Z,24.4
2017-05-27T10:05:01.750Z,24.5
2017-05-27T10:10:01.805Z,24.6
2017-05-27T10:15:02.034Z,24.6
2017-05-27T10:20:01.488Z,24.6
2017-05-27T10:25:01.786Z,24.8
2017-05-27T10:30:01.306Z,24.9
2017-05-27T10:35:02.049Z,25
2017-05-27T10:40:01.823Z,25
2017-05-27T10:45:01.451Z,25
2017-05-27T10:50:02.105Z,25
2017-05-27T10:55:01.866Z,25
2017-05-27T11:00:01.279Z,24.9
2017-05-27T11:05:01.668Z,24.9
2017-05-27T11:10:01.958Z,24.9
2017-05-27T11:15:01.173Z,24.8
2017-05-27T11:20:01.899Z,24.8
2017-05-27T11:25:02.186Z,24.7
2017-05-27T11:30:01.740Z,24.7
2017-05-27T11:35:01.639Z,24.7
2017-05-27T11:40:01.498Z,24.6
2017-05-27T11:45:02.121Z,24.6
2017-05-27T11:50:01.469Z,24.6
2017-05-27T11:55:01.235Z,24.6
2017-05-27T12:00:01.821Z,24.6
2017-05-27T12:05:01.616Z,24.6
2017-05-27T12:10:01.501Z,24.6
2017-05-27T12:15:01.283Z,24.6
2017-05-27T12:20:01.970Z,24.5
2017-05-27T12:25:01.958Z,24.4
2017-05-27T12:30:01.260Z,24.4
2017-05-27T12:35:01.563Z,24.4
2017-05-27T12:40:01.379Z,24.2
2017-05-27T12:45:01.175Z,24.2
2017-05-27T12:50:02.057Z,24.1
2017-05-27T12:55:01.741Z,24.1
2017-05-27T13:00:01.234Z,24.1
2017-05-27T13:05:01.881Z,24.1
2017-05-27T13:10:01.828Z,24.1
2017-05-27T13:15:01.525Z,24.1
2017-05-27T13:20:02.152Z,24.1
2017-05-27T13:25:01.310Z,24.1
2017-05-27T13:30:01.794Z,24.2
2017-05-27T13:35:02.160Z,24.2
2017-05-27T13:40:01.387Z,24.3
2017-05-27T13:45:01.223Z,24.3
2017-05-27T13:50:01.212Z,24.3
2017-05-27T13:55:01.392Z,24.3
2017-05-27T14:00:01.774Z,24.4
2017-05-27T14:05:02.174Z,24.6
2017-05-27T14:10:01.954Z,24.6
2017-05-27T14:15:01.274Z,24.6
2017-05-27T14:20:01.563Z,24.6
2017-05-27T14:25:01.626Z,24.6
2017-05-27T14:30:02.054Z,24.5
2017-05-27T14:35:01.205Z,24.4
2017-05-27T14:40:02.019Z,24.4
2017-05-27T14:45:01.700Z,24.4
2017-05-27T14:50:01.526Z,24.4
2017-05-27T14:55:02.170Z,23.7
2017-05-27T15:00:01.743Z,23.6
2017-05-27T15:05:01.791Z,23.4
2017-05-27T15:10:01.762Z,23.3
2017-05-27T15:15:01.251Z,23.2
2017-05-27T15:20:01.825Z,23.1
2017-05-27T15:25:02.079Z,23
2017-05-27T15:30:01.855Z,22.9
2017-05-27T15:35:01.994Z,22.8
2017-05-27T15:40:01.762Z,22.6
2017-05-27T15:45:01.438Z,22.6
2017-05-27T15:50:01.425Z,22.4
2017-05-27T15:55:01.256Z,22.2
2017-05-27T16:00:01.656Z,22.2
2017-05-27T16:05:01.458Z,22
2017-05-27T16:10:01.497Z,21.9
2017-05-27T16:15:01.447Z,21.9
2017-05-27T16:20:01.268Z,21.8
2017-05-27T16:25:01.344Z,21.8
2017-05-27T16:30:01.691Z,21.7
2017-05-27T16:35:01.448Z,21.7
2017-05-27T16:40:01.588Z,21.6
2017-05-27T16:45:01.383Z,21.5
2017-05-27T16:50:01.384Z,21.5
2017-05-27T16:55:01.935Z,21.5
2017-05-27T17:00:01.543Z,21.4
2017-05-27T17:05:01.690Z,21.4
2017-05-27T17:10:01.487Z,21.3
2017-05-27T17:15:01.266Z,21.2
2017-05-27T17:20:02.237Z,21.1
2017-05-27T17:25:01.759Z,21.1
2017-05-27T17:30:01.889Z,21
2017-05-27T17:35:02.142Z,21
2017-05-27T17:40:01.635Z,20.9
2017-05-27T17:45:01.478Z,20.8
2017-05-27T17:50:01.911Z,20.8
2017-05-27T17:55:02.197Z,20.7
2017-05-27T18:00:01.957Z,20.6
2017-05-27T18:05:01.447Z,20.5
2017-05-27T18:10:01.530Z,20.5
2017-05-27T18:15:01.484Z,20.4
2017-05-27T18:20:01.920Z,20.4
2017-05-27T18:25:01.257Z,20.3
2017-05-27T18:30:01.978Z,20.3
2017-05-27T18:35:01.414Z,20
2017-05-27T18:40:01.848Z,19.9
2017-05-27T18:45:02.151Z,19.9
2017-05-27T18:50:01.576Z,19.8
2017-05-27T18:55:01.533Z,19.7
2017-05-27T19:00:01.362Z,19.6
2017-05-27T19:05:01.566Z,19.6
2017-05-27T19:10:01.461Z,19.4
2017-05-27T19:15:01.669Z,19.4
2017-05-27T19:20:02.074Z,19.4
2017-05-27T19:25:02.006Z,19.2
2017-05-27T19:30:02.105Z,19.2
2017-05-27T19:35:01.986Z,19.2
2017-05-27T19:40:01.255Z,19
2017-05-27T19:45:01.621Z,19.1
2017-05-27T19:50:01.958Z,19.1
2017-05-27T19:55:01.367Z,19.1
2017-05-27T20:00:02.081Z,18.8
2017-05-27T20:05:01.904Z,18.8
2017-05-27T20:10:01.778Z,18.8
2017-05-27T20:15:01.603Z,18.6
2017-05-27T20:20:01.906Z,18.6
2017-05-27T20:25:01.709Z,18.2
2017-05-27T20:30:01.769Z,18
2017-05-27T20:35:01.275Z,18
2017-05-27T20:40:01.347Z,18
2017-05-27T20:45:01.301Z,18
2017-05-27T20:50:01.848Z,18
2017-05-27T20:55:01.332Z,17.3
2017-05-27T21:00:01.234Z,17.3
2017-05-27T21:05:01.435Z,17.3
2017-05-27T21:10:02.188Z,17.3
2017-05-27T21:15:01.994Z,17.3
2017-05-27T21:20:01.820Z,17.3
2017-05-27T21:25:01.858Z,17.2
2017-05-27T21:30:01.700Z,17.2
2017-05-27T21:35:01.286Z,17.5
2017-05-27T21:40:01.827Z,17.5
2017-05-27T21:45:01.953Z,17.5
2017-05-27T21:50:01.865Z,17.5
2017-05-27T21:55:01.915Z,17.4
2017-05-27T22:00:01.331Z,17.4
2017-05-27T22:05:02.033Z,17.4
2017-05-27T22:10:01.818Z,17.4
2017-05-27T22:15:01.203Z,17.1
2017-05-27T22:20:01.442Z,17.1
2017-05-27T22:25:01.657Z,17.1
2017-05-27T22:30:01.522Z,17.1
2017-05-27T22:35:01.926Z,17
2017-05-27T22:40:01.793Z,17.1
2017-05-27T22:45:01.705Z,17.1
2017-05-27T22:50:01.269Z,17.1
2017-05-27T22:55:02.102Z,17.1
2017-05-27T23:00:02.254Z,17.1
2017-05-27T23:05:02.132Z,17.1
2017-05-27T23:10:01.999Z,16.5
2017-05-27T23:15:01.855Z,16.4
2017-05-27T23:20:01.298Z,16.3
2017-05-27T23:25:01.353Z,16.3
2017-05-27T23:30:01.215Z,16.3
2017-05-27T23:35:01.876Z,16
2017-05-27T23:40:01.286Z,16
2017-05-27T23:45:01.277Z,16
2017-05-27T23:50:01.539Z,15.8
2017-05-27T23:55:01.370Z,15.8
